Time;durP1;ratioP1;P1;durP2;ratioP2;P2;SDS_P1;SDS_P2;PMS_P1;PMS_P2;Temp;Humidity;BMP_temperature;BMP_pressure;BME280_temperature;BME280_humidity;BME280_pressure;Samples;Min_cycle;Max_cycle;Signal;HPM_P1;HPM_P2
2021/12/25 00:01:26;;;;;;;;;;;;;;;11.78;51.68;99814.00;4964499;28;120427;-56
2021/12/25 00:03:52;;;;;;;;;;;;;;;11.78;51.98;99817.50;4963694;28;98300;-56
2021/12/25 00:06:18;;;;;;;;;;;;;;;11.78;51.69;99819.41;4964053;28;98311;-64
2021/12/25 00:08:44;;;;;;;;;;;;;;;11.78;51.66;99836.41;4977954;27;97973;-64
2021/12/25 00:11:11;;;;;;;;;;;;;;;11.77;51.99;99834.00;4981594;28;100931;-63
2021/12/25 00:13:40;;;;;;;;;;;;;;;11.76;52.01;99837.81;4982948;27;98875;-63
2021/12/25 00:16:06;;;;;;;;;;;;;;;11.76;51.84;99851.31;4983523;27;98261;-57
2021/12/25 00:18:33;;;;;;;;;;;;;;;11.75;51.57;99861.31;4983426;27;98704;-63
2021/12/25 00:20:59;;;;;;;;;;;;;;;11.73;51.96;99866.19;4984636;27;98658;-63
2021/12/25 00:23:25;;;;;;;;;;;;;;;11.73;51.86;99849.97;4977622;27;127116;-56
2021/12/25 00:26:05;;;;;;;;;;;;;;;11.71;51.43;99867.56;4962513;28;116040;-56
2021/12/25 00:36:12;;;;;;;;;;;;;;;11.62;51.53;99883.59;4979870;27;98117;-63
2021/12/25 00:38:40;;;;;;;;;;;;;;;11.60;51.70;99885.78;4983490;27;98102;-56
2021/12/25 00:41:06;;;;;;;;;;;;;;;11.56;51.32;99882.06;4983300;27;98876;-64
2021/12/25 00:43:32;;;;;;;;;;;;;;;11.55;51.35;99889.34;4981653;27;98490;-64
2021/12/25 00:45:58;;;;;;;;;;;;;;;11.54;51.43;99893.13;4963664;28;97824;-56
2021/12/25 00:48:24;;;;;;;;;;;;;;;11.52;51.20;99892.63;4962221;28;116558;-64
2021/12/25 00:50:50;;;;;;;;;;;;;;;11.50;51.42;99897.50;4981679;28;128704;-64
2021/12/25 00:53:16;;;;;;;;;;;;;;;11.49;51.44;99913.97;4962115;28;128125;-63
2021/12/25 00:55:41;;;;;;;;;;;;;;;11.46;51.47;99915.34;4961814;28;127307;-56
2021/12/25 00:58:07;;;;;;;;;;;;;;;11.44;50.87;99916.75;4962936;28;117916;-60
2021/12/25 01:00:33;;;;;;;;;;;;;;;11.44;51.33;99939.13;4963193;28;113907;-64
2021/12/25 01:02:59;;;;;;;;;;;;;;;11.41;51.31;99947.00;4962877;28;127920;-56
2021/12/25 01:05:25;;;;;;;;;;;;;;;11.39;51.48;99955.34;4962060;28;127475;-64
2021/12/25 01:07:51;;;;;;;;;;;;;;;11.39;51.21;99957.25;4962326;28;116627;-56
2021/12/25 01:10:18;;;;;;;;;;;;;;;11.37;51.10;99962.16;4962765;28;107215;-56
2021/12/25 01:12:58;;;;;;;;;;;;;;;11.36;50.78;99963.22;4962353;28;98753;-56
2021/12/25 01:15:34;;;;;;;;;;;;;;;11.33;50.63;99975.41;4963101;28;98077;-64
2021/12/25 01:26:12;;;;;;;;;;;;;;;11.24;50.42;99977.13;4979552;27;97791;-64
2021/12/25 01:31:18;;;;;;;;;;;;;;;11.21;50.31;99993.84;4979257;27;97994;-64
2021/12/25 01:34:01;;;;;;;;;;;;;;;11.20;50.87;99992.22;4980136;27;99059;-65
2021/12/25 01:39:19;;;;;;;;;;;;;;;11.18;50.67;99997.91;4974916;27;97913;-64
2021/12/25 01:49:54;;;;;;;;;;;;;;;11.17;50.48;100017.09;4961251;28;98068;-64
2021/12/25 01:52:26;;;;;;;;;;;;;;;11.15;50.17;100016.56;4961964;28;98322;-56
2021/12/25 01:54:53;;;;;;;;;;;;;;;11.14;50.32;100023.03;4962708;28;98269;-56
2021/12/25 01:57:19;;;;;;;;;;;;;;;11.12;50.29;100015.25;4961897;28;98200;-64
2021/12/25 01:59:45;;;;;;;;;;;;;;;11.11;50.17;100016.31;4963081;28;97679;-64
2021/12/25 02:02:10;;;;;;;;;;;;;;;11.10;49.95;100013.91;4961209;28;125302;-56
2021/12/25 02:04:36;;;;;;;;;;;;;;;11.10;49.69;100016.59;4960691;28;128940;-56
2021/12/25 02:07:02;;;;;;;;;;;;;;;11.08;50.02;100024.94;4960226;28;126772;-56
2021/12/25 02:09:28;;;;;;;;;;;;;;;11.06;50.25;100025.25;4960815;28;114739;-64
2021/12/25 02:11:54;;;;;;;;;;;;;;;11.03;49.84;100019.59;5011440;27;100565;-64
2021/12/25 02:14:20;;;;;;;;;;;;;;;11.02;49.79;100028.78;4977107;27;118879;-56
2021/12/25 02:16:55;;;;;;;;;;;;;;;11.02;49.45;100024.19;4962741;28;98102;-56
2021/12/25 02:19:34;;;;;;;;;;;;;;;11.02;49.72;100031.50;4961653;28;97955;-56
2021/12/25 02:22:02;;;;;;;;;;;;;;;11.00;49.80;100041.75;4961762;28;98482;-64
2021/12/25 02:24:28;;;;;;;;;;;;;;;10.97;49.83;100036.94;4962069;28;98957;-56
2021/12/25 02:26:55;;;;;;;;;;;;;;;10.96;49.38;100044.19;4961864;28;107449;-64
2021/12/25 02:29:21;;;;;;;;;;;;;;;10.95;49.20;100042.59;4961406;28;97950;-56
2021/12/25 02:31:47;;;;;;;;;;;;;;;10.94;49.85;100043.66;4960799;28;120105;-64
2021/12/25 02:34:14;;;;;;;;;;;;;;;10.93;49.84;100052.06;4967063;28;129263;-61
2021/12/25 02:36:40;;;;;;;;;;;;;;;10.90;49.32;100047.22;4974516;27;98524;-56
2021/12/25 02:39:06;;;;;;;;;;;;;;;10.91;48.94;100059.59;4966499;28;116037;-63
2021/12/25 02:41:32;;;;;;;;;;;;;;;10.90;49.54;100053.41;4980840;28;128431;-56
2021/12/25 02:43:58;;;;;;;;;;;;;;;10.90;49.65;100055.31;4964514;28;113660;-65
2021/12/25 02:46:25;;;;;;;;;;;;;;;10.88;49.01;100052.06;4961066;28;126380;-63
2021/12/25 02:48:55;;;;;;;;;;;;;;;10.86;49.18;100044.25;4962853;28;97777;-56
2021/12/25 02:51:20;;;;;;;;;;;;;;;10.85;49.15;100055.34;4961309;28;98783;-56
2021/12/25 02:53:46;;;;;;;;;;;;;;;10.83;49.40;100061.00;4961601;28;126236;-57
2021/12/25 02:56:12;;;;;;;;;;;;;;;10.81;49.33;100066.69;4960620;28;129105;-56
2021/12/25 02:58:38;;;;;;;;;;;;;;;10.81;49.17;100082.06;4975364;28;118703;-56
2021/12/25 03:01:07;;;;;;;;;;;;;;;10.78;49.42;100088.00;4961744;28;98493;-56
2021/12/25 03:03:33;;;;;;;;;;;;;;;10.76;49.29;100088.25;4961134;28;122299;-64
2021/12/25 03:06:02;;;;;;;;;;;;;;;10.75;49.27;100085.84;4960705;28;117929;-63
2021/12/25 03:08:28;;;;;;;;;;;;;;;10.74;49.18;100084.25;4959209;28;97944;-57
2021/12/25 03:10:54;;;;;;;;;;;;;;;10.73;48.57;100077.25;4960850;28;125921;-56
2021/12/25 03:13:42;;;;;;;;;;;;;;;10.70;49.09;100073.19;4961019;28;98726;-64
2021/12/25 03:16:09;;;;;;;;;;;;;;;10.69;48.40;100068.91;4942349;28;100100;-63
2021/12/25 03:18:41;;;;;;;;;;;;;;;10.69;48.75;100073.47;4946889;28;98038;-57
2021/12/25 03:21:07;;;;;;;;;;;;;;;10.67;48.91;100072.94;4964864;28;98438;-63
2021/12/25 03:23:34;;;;;;;;;;;;;;;10.65;49.05;100073.25;4963604;28;122339;-64
2021/12/25 03:26:00;;;;;;;;;;;;;;;10.65;48.31;100091.28;4964857;28;98389;-64
2021/12/25 03:28:31;;;;;;;;;;;;;;;10.63;48.68;100085.38;4964400;28;98248;-56
2021/12/25 03:31:00;;;;;;;;;;;;;;;10.63;48.14;100088.06;4965121;28;97844;-63
2021/12/25 03:33:26;;;;;;;;;;;;;;;10.62;48.25;100086.47;4964127;28;98439;-63
2021/12/25 03:35:52;;;;;;;;;;;;;;;10.62;48.34;100094.53;4964403;28;97921;-56
2021/12/25 03:38:21;;;;;;;;;;;;;;;10.60;48.12;100091.31;4966694;27;117346;-56
2021/12/25 03:40:50;;;;;;;;;;;;;;;10.58;48.62;100088.91;4984838;27;98526;-63
2021/12/25 03:43:17;;;;;;;;;;;;;;;10.58;48.53;100086.19;4983873;27;123875;-56
2021/12/25 03:45:43;;;;;;;;;;;;;;;10.57;48.32;100092.66;4982377;27;98201;-60
2021/12/25 03:48:29;;;;;;;;;;;;;;;10.56;48.13;100088.34;4981887;28;118938;-64
2021/12/25 03:59:05;;;;;;;;;;;;;;;10.51;47.81;100113.44;4980787;27;97861;-56
2021/12/25 04:04:33;;;;;;;;;;;;;;;10.49;48.45;100112.91;4963650;28;98362;-56
2021/12/25 04:09:27;;;;;;;;;;;;;;;10.49;47.48;100109.41;4981669;27;97984;-63
2021/12/25 04:11:59;;;;;;;;;;;;;;;10.47;47.97;100112.38;4971748;28;98565;-64
2021/12/25 04:14:25;;;;;;;;;;;;;;;10.46;48.14;100108.06;4977535;28;119360;-63
2021/12/25 04:16:51;;;;;;;;;;;;;;;10.46;47.82;100118.84;4963182;28;127687;-56
2021/12/25 04:19:17;;;;;;;;;;;;;;;10.44;47.62;100121.00;4963308;28;108634;-64
2021/12/25 04:21:59;;;;;;;;;;;;;;;10.44;48.16;100114.81;4963413;28;112833;-64
2021/12/25 04:24:27;;;;;;;;;;;;;;;10.42;47.77;100119.69;4981314;28;99209;-64
2021/12/25 04:26:53;;;;;;;;;;;;;;;10.41;47.86;100131.53;4984242;27;97776;-64
2021/12/25 04:32:17;;;;;;;;;;;;;;;10.37;47.79;100125.06;4979398;27;98319;-57
2021/12/25 05:02:17;;;;;;;;;;;;;;;10.25;47.76;100157.69;4978886;28;97785;-57
2021/12/25 05:04:51;;;;;;;;;;;;;;;10.21;46.81;100156.59;4981572;27;98377;-56
2021/12/25 05:07:17;;;;;;;;;;;;;;;10.23;47.28;100151.75;4982571;28;98253;-57
2021/12/25 05:09:43;;;;;;;;;;;;;;;10.22;47.17;100150.94;4981393;27;127740;-57
2021/12/25 05:12:09;;;;;;;;;;;;;;;10.20;47.54;100163.06;4981448;27;118058;-64
2021/12/25 05:14:35;;;;;;;;;;;;;;;10.21;47.67;100165.47;4981695;27;116884;-56
2021/12/25 05:17:01;;;;;;;;;;;;;;;10.19;47.17;100156.88;4981962;28;99002;-56
2021/12/25 05:19:27;;;;;;;;;;;;;;;10.19;47.41;100161.47;4981442;27;100096;-63
2021/12/25 05:21:53;;;;;;;;;;;;;;;10.18;47.86;100159.81;4982116;27;115489;-56
2021/12/25 05:24:19;;;;;;;;;;;;;;;10.17;47.17;100155.53;4981315;27;128529;-65
2021/12/25 05:26:45;;;;;;;;;;;;;;;10.16;47.15;100156.59;4981964;28;128329;-57
2021/12/25 05:29:11;;;;;;;;;;;;;;;10.11;46.65;100167.41;4981247;27;103661;-64
2021/12/25 05:31:37;;;;;;;;;;;;;;;10.12;47.32;100177.09;4968614;27;97741;-56
2021/12/25 05:34:03;;;;;;;;;;;;;;;10.11;46.99;100181.66;4961926;28;128735;-56
2021/12/25 05:36:29;;;;;;;;;;;;;;;10.09;47.23;100181.91;4961154;28;128926;-57
2021/12/25 05:38:56;;;;;;;;;;;;;;;10.07;46.90;100184.09;4966709;27;127103;-57
2021/12/25 05:41:26;;;;;;;;;;;;;;;10.06;47.25;100193.25;4982529;27;97754;-64
2021/12/25 05:43:52;;;;;;;;;;;;;;;10.05;46.88;100197.00;4981600;27;99972;-64
2021/12/25 05:46:18;;;;;;;;;;;;;;;10.04;46.86;100189.22;4979235;28;121008;-56
2021/12/25 05:48:45;;;;;;;;;;;;;;;10.03;46.85;100199.19;4973202;28;97972;-56
2021/12/25 05:51:12;;;;;;;;;;;;;;;10.01;47.09;100192.44;4961561;28;98078;-55
2021/12/25 05:53:38;;;;;;;;;;;;;;;10.00;46.84;100199.72;4961496;28;100054;-56
2021/12/25 05:56:04;;;;;;;;;;;;;;;9.98;46.74;100201.88;4959831;28;129249;-56
2021/12/25 05:58:30;;;;;;;;;;;;;;;9.98;46.71;100209.94;4975095;28;100456;-56
2021/12/25 06:00:56;;;;;;;;;;;;;;;9.96;46.68;100211.28;4961270;28;106518;-56
2021/12/25 06:03:22;;;;;;;;;;;;;;;9.95;47.33;100207.00;4959927;28;128316;-57
2021/12/25 06:05:48;;;;;;;;;;;;;;;9.93;46.63;100214.50;4960896;28;128307;-56
2021/12/25 06:08:14;;;;;;;;;;;;;;;9.92;46.98;100218.28;4960025;28;127175;-57
2021/12/25 06:10:41;;;;;;;;;;;;;;;9.90;46.81;100212.34;4961546;28;97801;-56
2021/12/25 06:13:10;;;;;;;;;;;;;;;9.88;46.69;100209.94;4961056;28;111547;-56
2021/12/25 06:15:36;;;;;;;;;;;;;;;9.86;46.74;100212.06;4962401;28;98437;-56
2021/12/25 06:18:02;;;;;;;;;;;;;;;9.83;46.48;100209.94;4960298;28;97768;-56
2021/12/25 06:20:28;;;;;;;;;;;;;;;9.81;46.81;100218.28;4960317;28;108255;-56
2021/12/25 06:22:54;;;;;;;;;;;;;;;9.80;46.50;100208.59;4961479;28;98237;-56
2021/12/25 06:25:20;;;;;;;;;;;;;;;9.79;47.01;100215.06;4959108;28;127770;-56
2021/12/25 06:27:46;;;;;;;;;;;;;;;9.78;46.65;100215.31;4969591;28;117680;-56
2021/12/25 06:30:13;;;;;;;;;;;;;;;9.75;46.63;100210.47;4977946;27;97684;-56
2021/12/25 06:32:39;;;;;;;;;;;;;;;9.74;46.86;100212.34;4961680;28;98930;-56
2021/12/25 06:35:06;;;;;;;;;;;;;;;9.71;46.30;100218.28;4967005;27;98497;-57
2021/12/25 06:37:32;;;;;;;;;;;;;;;9.70;46.67;100216.63;4959255;28;117330;-56
2021/12/25 06:39:58;;;;;;;;;;;;;;;9.69;46.03;100217.72;4959879;28;97811;-56
2021/12/25 06:42:24;;;;;;;;;;;;;;;9.68;46.74;100220.69;4961216;28;99138;-56
2021/12/25 06:44:50;;;;;;;;;;;;;;;9.67;46.37;100232.50;4978573;27;98880;-56
2021/12/25 06:47:16;;;;;;;;;;;;;;;9.65;46.19;100238.16;4977409;28;128322;-56
2021/12/25 06:49:41;;;;;;;;;;;;;;;9.63;46.14;100232.25;4976769;28;98181;-56
2021/12/25 06:52:07;;;;;;;;;;;;;;;9.62;46.23;100237.91;4979571;28;127706;-56
2021/12/25 06:54:33;;;;;;;;;;;;;;;9.60;46.05;100246.25;4974886;28;115005;-57
2021/12/25 06:57:01;;;;;;;;;;;;;;;9.58;46.20;100254.56;4978385;27;127888;-56
2021/12/25 06:59:28;;;;;;;;;;;;;;;9.59;46.24;100256.19;4978546;27;97953;-56
2021/12/25 07:01:54;;;;;;;;;;;;;;;9.56;46.52;100245.97;4981078;27;98963;-56
2021/12/25 07:04:20;;;;;;;;;;;;;;;9.55;46.13;100265.06;4966217;27;98631;-56
2021/12/25 07:06:46;;;;;;;;;;;;;;;9.54;46.56;100264.25;4960094;28;128168;-57
2021/12/25 07:09:12;;;;;;;;;;;;;;;9.54;45.91;100264.25;4960527;28;98215;-56
2021/12/25 07:11:38;;;;;;;;;;;;;;;9.55;46.14;100273.16;4963315;28;121839;-64
2021/12/25 07:14:05;;;;;;;;;;;;;;;9.53;46.47;100262.63;4981101;27;98816;-56
2021/12/25 07:16:31;;;;;;;;;;;;;;;9.52;46.32;100265.59;4980565;27;98087;-56
2021/12/25 07:18:57;;;;;;;;;;;;;;;9.52;46.29;100262.91;4976762;28;111947;-56
2021/12/25 07:21:23;;;;;;;;;;;;;;;9.52;46.17;100268.28;4974196;27;98568;-56
2021/12/25 07:23:49;;;;;;;;;;;;;;;9.49;45.99;100269.63;4960870;28;127338;-56
2021/12/25 07:26:17;;;;;;;;;;;;;;;9.50;46.19;100278.50;4957088;28;127433;-64
2021/12/25 07:28:44;;;;;;;;;;;;;;;9.49;46.06;100283.06;4958176;28;97738;-64
2021/12/25 07:31:10;;;;;;;;;;;;;;;9.49;46.46;100287.66;4957665;28;98270;-65
2021/12/25 07:33:40;;;;;;;;;;;;;;;9.49;46.17;100293.84;4958163;28;99128;-64
2021/12/25 07:36:08;;;;;;;;;;;;;;;9.49;46.10;100288.47;4960019;27;98838;-56
2021/12/25 07:38:34;;;;;;;;;;;;;;;9.49;45.90;100285.75;4959231;28;97964;-64
2021/12/25 07:41:00;;;;;;;;;;;;;;;9.50;45.91;100287.38;4960561;28;109513;-57
2021/12/25 07:43:26;;;;;;;;;;;;;;;9.49;46.02;100290.34;4957205;28;98846;-56
2021/12/25 07:45:52;;;;;;;;;;;;;;;9.49;45.67;100293.84;4956990;28;107323;-56
2021/12/25 07:48:20;;;;;;;;;;;;;;;9.48;45.85;100303.00;4960427;28;98061;-56
2021/12/25 07:50:46;;;;;;;;;;;;;;;9.49;46.39;100311.88;4957784;28;98457;-56
2021/12/25 07:53:12;;;;;;;;;;;;;;;9.52;45.80;100305.97;4955827;28;110838;-56
2021/12/25 07:55:38;;;;;;;;;;;;;;;9.62;45.55;100305.97;4957609;28;98594;-56
2021/12/25 07:58:04;;;;;;;;;;;;;;;9.65;45.44;100310.03;4955531;28;119115;-56
2021/12/25 08:00:30;;;;;;;;;;;;;;;9.69;45.99;100305.75;4952821;28;127963;-56
2021/12/25 08:02:55;;;;;;;;;;;;;;;9.74;45.46;100300.38;4955857;28;128494;-56
2021/12/25 08:05:21;;;;;;;;;;;;;;;9.86;45.39;100306.31;4955240;28;128711;-56
2021/12/25 08:07:48;;;;;;;;;;;;;;;10.01;45.15;100305.53;4964593;28;97979;-56
2021/12/25 08:10:16;;;;;;;;;;;;;;;10.16;45.54;100300.16;4957938;28;118293;-56
2021/12/25 08:12:50;;;;;;;;;;;;;;;10.35;44.74;100294.28;4963749;28;98913;-57
2021/12/25 08:15:17;;;;;;;;;;;;;;;10.60;44.67;100298.84;4960714;28;98064;-57
2021/12/25 08:17:43;;;;;;;;;;;;;;;10.96;44.22;100294.19;4960443;28;98651;-57
2021/12/25 08:20:10;;;;;;;;;;;;;;;11.31;44.38;100285.16;4958580;27;128515;-57
2021/12/25 08:22:36;;;;;;;;;;;;;;;11.68;44.20;100282.03;4958605;28;110841;-56
2021/12/25 08:25:02;;;;;;;;;;;;;;;12.16;43.80;100278.78;4959731;28;98109;-56
2021/12/25 08:27:28;;;;;;;;;;;;;;;12.86;43.11;100287.34;4959214;28;97869;-57
2021/12/25 08:29:54;;;;;;;;;;;;;;;13.55;42.53;100287.09;4958349;28;128835;-57
2021/12/25 08:32:20;;;;;;;;;;;;;;;14.23;42.07;100281.22;4960218;28;106649;-57
2021/12/25 08:34:46;;;;;;;;;;;;;;;14.83;41.46;100285.91;4963366;27;127235;-57
2021/12/25 08:37:12;;;;;;;;;;;;;;;15.58;40.83;100285.47;4958010;28;118023;-57
2021/12/25 08:39:38;;;;;;;;;;;;;;;16.24;40.24;100285.91;4956352;27;98875;-57
2021/12/25 08:42:05;;;;;;;;;;;;;;;16.62;40.03;100297.19;4959731;28;99785;-57
2021/12/25 08:44:40;;;;;;;;;;;;;;;16.36;40.52;100297.03;4962298;28;98574;-57
2021/12/25 08:47:08;;;;;;;;;;;;;;;16.02;41.08;100307.63;4959455;28;99096;-57
2021/12/25 08:49:35;;;;;;;;;;;;;;;16.65;40.50;100303.91;4958364;27;99113;-57
2021/12/25 08:52:06;;;;;;;;;;;;;;;17.09;40.04;100303.03;4957981;28;120235;-57
2021/12/25 08:54:32;;;;;;;;;;;;;;;17.37;40.03;100303.63;4958473;28;120351;-56
2021/12/25 08:56:59;;;;;;;;;;;;;;;17.60;40.03;100298.84;4959551;28;105197;-58
2021/12/25 08:59:26;;;;;;;;;;;;;;;17.83;39.94;100304.19;4960398;28;98182;-57
2021/12/25 09:01:52;;;;;;;;;;;;;;;18.04;40.10;100302.47;4953941;28;97880;-57
2021/12/25 09:04:18;;;;;;;;;;;;;;;18.22;40.03;100297.78;4956052;28;116780;-57
2021/12/25 09:06:44;;;;;;;;;;;;;;;18.42;40.01;100301.78;4966712;28;98253;-57
2021/12/25 09:09:10;;;;;;;;;;;;;;;18.59;39.99;100304.47;4957482;28;129452;-57
2021/12/25 09:11:36;;;;;;;;;;;;;;;18.75;39.85;100314.91;4966435;28;98350;-57
2021/12/25 09:14:02;;;;;;;;;;;;;;;18.80;40.10;100312.78;4956845;28;116560;-57
2021/12/25 09:16:28;;;;;;;;;;;;;;;18.70;40.04;100317.75;4957698;28;98132;-57
2021/12/25 09:18:54;;;;;;;;;;;;;;;18.67;40.13;100321.13;4957782;28;128707;-57
2021/12/25 09:21:20;;;;;;;;;;;;;;;18.52;40.38;100311.56;4957631;28;125480;-57
2021/12/25 09:23:47;;;;;;;;;;;;;;;18.27;40.77;100321.38;4958357;28;98507;-57
2021/12/25 09:26:13;;;;;;;;;;;;;;;17.94;41.12;100323.78;4956500;28;109681;-57
2021/12/25 09:28:39;;;;;;;;;;;;;;;17.65;41.58;100325.97;4957283;28;128511;-57
2021/12/25 09:31:05;;;;;;;;;;;;;;;17.47;41.67;100332.47;4958638;28;98318;-57
2021/12/25 09:33:31;;;;;;;;;;;;;;;17.32;41.63;100335.63;4966997;28;98264;-57
2021/12/25 09:35:57;;;;;;;;;;;;;;;17.18;41.81;100328.41;4957514;28;110475;-57
2021/12/25 09:38:24;;;;;;;;;;;;;;;17.15;41.93;100331.75;4960410;27;98478;-57
2021/12/25 09:40:50;;;;;;;;;;;;;;;17.13;41.83;100325.00;4957044;28;112328;-57
2021/12/25 09:43:18;;;;;;;;;;;;;;;17.18;41.76;100324.88;4957463;28;127151;-57
2021/12/25 09:45:44;;;;;;;;;;;;;;;17.18;41.83;100327.59;4958681;28;97834;-57
2021/12/25 09:48:10;;;;;;;;;;;;;;;17.14;41.97;100321.97;4957658;28;126052;-57
2021/12/25 09:50:36;;;;;;;;;;;;;;;17.09;42.18;100327.53;4957086;28;121010;-57
2021/12/25 09:53:06;;;;;;;;;;;;;;;17.04;42.23;100333.13;4957283;28;119571;-57
2021/12/25 09:55:32;;;;;;;;;;;;;;;17.01;42.23;100330.22;4956061;28;98081;-57
2021/12/25 09:57:58;;;;;;;;;;;;;;;16.95;42.32;100326.84;4957386;28;98489;-57
2021/12/25 10:00:24;;;;;;;;;;;;;;;16.86;42.44;100331.47;4953419;28;128196;-57
2021/12/25 10:02:52;;;;;;;;;;;;;;;16.80;42.57;100344.38;4956482;28;98208;-57
2021/12/25 10:05:38;;;;;;;;;;;;;;;16.76;42.60;100350.75;4961443;28;97941;-57
2021/12/25 10:08:10;;;;;;;;;;;;;;;16.67;42.72;100345.25;4957963;28;119552;-57
2021/12/25 10:10:51;;;;;;;;;;;;;;;16.55;43.04;100340.38;4957795;28;98735;-57
2021/12/25 10:13:20;;;;;;;;;;;;;;;16.44;43.09;100334.38;4963610;28;98596;-57
2021/12/25 10:15:46;;;;;;;;;;;;;;;16.34;43.07;100342.75;4959261;28;97975;-57
2021/12/25 10:18:12;;;;;;;;;;;;;;;16.24;43.28;100336.78;4971871;28;98311;-58
2021/12/25 10:20:38;;;;;;;;;;;;;;;16.16;43.26;100339.13;4960400;27;128559;-57
2021/12/25 10:23:13;;;;;;;;;;;;;;;16.08;43.31;100341.75;4956219;28;124834;-57
2021/12/25 10:25:53;;;;;;;;;;;;;;;16.01;43.56;100338.66;4958529;28;97836;-57
2021/12/25 10:28:21;;;;;;;;;;;;;;;15.90;43.43;100341.59;4956595;28;98819;-57
2021/12/25 10:30:58;;;;;;;;;;;;;;;15.85;43.47;100349.88;4962762;28;98617;-57
2021/12/25 10:33:28;;;;;;;;;;;;;;;15.78;43.26;100349.47;4959202;28;98179;-57
2021/12/25 10:35:55;;;;;;;;;;;;;;;15.74;43.37;100350.41;4959847;28;97860;-57
2021/12/25 10:38:24;;;;;;;;;;;;;;;15.74;43.73;100344.97;4957210;28;98409;-57
2021/12/25 10:40:50;;;;;;;;;;;;;;;15.70;43.41;100342.03;4958874;27;98399;-57
2021/12/25 10:43:22;;;;;;;;;;;;;;;15.69;43.25;100341.25;4957536;28;98797;-57
2021/12/25 10:46:01;;;;;;;;;;;;;;;15.67;43.55;100343.44;4956429;28;98036;-57
2021/12/25 10:48:28;;;;;;;;;;;;;;;15.66;43.57;100346.47;4957924;28;99133;-57
2021/12/25 10:50:55;;;;;;;;;;;;;;;15.65;43.34;100339.44;4958828;28;98027;-57
2021/12/25 10:53:25;;;;;;;;;;;;;;;15.60;43.51;100348.47;4957524;28;97783;-57
2021/12/25 10:55:51;;;;;;;;;;;;;;;15.58;43.91;100353.41;4959088;28;97963;-57
2021/12/25 10:58:21;;;;;;;;;;;;;;;15.54;43.66;100357.81;4958001;28;98489;-64
2021/12/25 11:00:55;;;;;;;;;;;;;;;15.52;43.89;100357.31;4957914;28;98914;-57
2021/12/25 11:03:36;;;;;;;;;;;;;;;15.47;43.87;100352.78;4952475;28;98429;-64
2021/12/25 11:06:07;;;;;;;;;;;;;;;15.41;43.95;100351.31;4958744;28;97933;-64
2021/12/25 11:08:34;;;;;;;;;;;;;;;15.34;43.86;100353.59;4957575;28;98386;-57
2021/12/25 11:11:10;;;;;;;;;;;;;;;15.25;44.21;100355.44;4957493;28;98076;-64
2021/12/25 11:13:36;;;;;;;;;;;;;;;15.12;43.96;100351.56;4963034;28;98240;-57
2021/12/25 11:16:27;;;;;;;;;;;;;;;15.02;44.28;100350.97;4958698;28;97784;-64
2021/12/25 11:19:11;;;;;;;;;;;;;;;14.88;44.13;100354.44;4959702;28;98166;-65
2021/12/25 11:21:43;;;;;;;;;;;;;;;14.80;44.28;100348.91;4957882;28;99001;-56
2021/12/25 11:24:09;;;;;;;;;;;;;;;14.71;44.48;100346.09;4957420;28;97925;-57
2021/12/25 11:26:36;;;;;;;;;;;;;;;14.64;44.70;100354.59;4961976;28;98030;-57
2021/12/25 11:29:02;;;;;;;;;;;;;;;14.58;44.68;100346.81;4956824;28;98357;-57
2021/12/25 11:31:30;;;;;;;;;;;;;;;14.54;44.65;100346.66;4957602;28;107592;-64
2021/12/25 11:33:56;;;;;;;;;;;;;;;14.53;44.63;100346.91;4956631;28;98042;-64
2021/12/25 11:36:22;;;;;;;;;;;;;;;14.49;44.31;100339.38;4988848;27;117554;-57
2021/12/25 11:38:49;;;;;;;;;;;;;;;14.45;44.39;100342.94;4955774;28;101041;-63
2021/12/25 11:41:15;;;;;;;;;;;;;;;14.34;44.54;100342.28;4957884;28;120510;-65
2021/12/25 11:43:43;;;;;;;;;;;;;;;14.27;44.81;100355.44;4961922;27;127620;-64
2021/12/25 11:46:09;;;;;;;;;;;;;;;14.18;44.66;100351.75;4967013;28;97769;-64
2021/12/25 11:48:36;;;;;;;;;;;;;;;14.11;44.50;100352.16;4960996;28;98220;-64
2021/12/25 11:51:02;;;;;;;;;;;;;;;14.03;44.98;100343.84;4960448;28;122603;-64
2021/12/25 11:54:15;;;;;;;;;;;;;;;13.94;44.59;100347.22;4958158;28;98041;-64
2021/12/25 11:56:38;;;;;;;;;;;;;;;13.85;44.66;100335.44;4956989;28;98464;-57
2021/12/25 11:59:14;;;;;;;;;;;;;;;13.74;45.01;100339.38;4960543;28;98526;-62
2021/12/25 12:01:46;;;;;;;;;;;;;;;13.64;45.12;100350.34;4960590;28;98504;-58
2021/12/25 12:04:15;;;;;;;;;;;;;;;13.55;45.28;100347.47;4962659;28;98311;-64
2021/12/25 12:06:47;;;;;;;;;;;;;;;13.46;45.16;100351.91;4966374;27;97978;-56
2021/12/25 12:09:13;;;;;;;;;;;;;;;13.36;45.07;100350.16;4964500;28;98937;-57
2021/12/25 12:11:41;;;;;;;;;;;;;;;13.29;45.27;100348.88;4961926;28;98869;-64
2021/12/25 12:14:13;;;;;;;;;;;;;;;13.22;45.28;100351.91;4959803;28;98204;-57
2021/12/25 12:16:41;;;;;;;;;;;;;;;13.14;45.08;100356.03;4962555;28;97850;-57
2021/12/25 12:19:29;;;;;;;;;;;;;;;13.08;45.31;100351.75;4960138;28;99408;-63
2021/12/25 12:21:55;;;;;;;;;;;;;;;13.01;45.29;100354.81;4967789;28;98525;-62
2021/12/25 12:25:13;;;;;;;;;;;;;;;12.96;45.22;100359.44;4958967;28;119063;-64
2021/12/25 12:27:38;;;;;;;;;;;;;;;12.91;45.05;100373.84;4959679;28;98272;-57
2021/12/25 12:30:05;;;;;;;;;;;;;;;12.85;44.96;100372.28;4959686;28;100004;-56
2021/12/25 12:32:43;;;;;;;;;;;;;;;12.83;45.27;100374.47;4961039;28;98793;-56
2021/12/25 12:35:32;;;;;;;;;;;;;;;12.78;45.06;100375.31;4963070;28;98161;-56
2021/12/25 12:38:39;;;;;;;;;;;;;;;12.75;45.29;100372.38;4960636;28;97916;-56
2021/12/25 12:41:18;;;;;;;;;;;;;;;12.78;45.04;100374.50;4953916;28;98927;-56
2021/12/25 12:44:09;;;;;;;;;;;;;;;12.79;45.18;100384.22;4960829;28;98898;-57
2021/12/25 12:46:51;;;;;;;;;;;;;;;12.78;45.12;100379.91;4960453;28;98261;-64
2021/12/25 12:49:19;;;;;;;;;;;;;;;12.78;45.05;100383.44;4960677;28;98243;-56
2021/12/25 12:51:45;;;;;;;;;;;;;;;12.75;45.28;100378.59;4959814;28;98513;-64
2021/12/25 12:54:19;;;;;;;;;;;;;;;12.72;45.08;100383.75;4956546;28;125273;-64
2021/12/25 12:57:01;;;;;;;;;;;;;;;12.68;45.11;100383.50;4959642;28;121741;-64
2021/12/25 12:59:47;;;;;;;;;;;;;;;12.61;45.24;100383.00;4960280;28;98016;-56
2021/12/25 13:02:14;;;;;;;;;;;;;;;12.54;45.14;100377.16;4960342;28;99207;-64
2021/12/25 13:04:50;;;;;;;;;;;;;;;12.49;45.18;100380.66;4959918;28;104320;-56
2021/12/25 13:07:18;;;;;;;;;;;;;;;12.42;45.23;100372.09;4959745;28;98258;-57
2021/12/25 13:09:51;;;;;;;;;;;;;;;12.37;45.22;100384.81;4961083;28;97744;-64
2021/12/25 13:12:45;;;;;;;;;;;;;;;12.31;45.21;100386.75;4959375;28;98850;-56
2021/12/25 13:15:12;;;;;;;;;;;;;;;12.25;45.30;100387.88;4959614;28;98546;-64
2021/12/25 13:17:38;;;;;;;;;;;;;;;12.18;45.26;100382.81;4960216;28;97850;-64
2021/12/25 13:20:05;;;;;;;;;;;;;;;12.13;45.41;100382.81;4958684;27;103094;-56
2021/12/25 13:22:31;;;;;;;;;;;;;;;12.09;45.05;100391.75;4959529;28;98651;-56
2021/12/25 13:25:08;;;;;;;;;;;;;;;12.03;45.09;100388.28;4952094;28;98677;-64
2021/12/25 13:27:34;;;;;;;;;;;;;;;11.98;45.44;100374.78;4957678;28;98259;-56
2021/12/25 13:30:16;;;;;;;;;;;;;;;11.93;45.14;100375.63;4959602;28;98839;-57
2021/12/25 13:32:42;;;;;;;;;;;;;;;11.89;45.12;100384.56;4959918;28;98481;-56
2021/12/25 13:35:10;;;;;;;;;;;;;;;11.87;44.91;100389.44;4957933;28;124917;-65
2021/12/25 13:37:36;;;;;;;;;;;;;;;11.83;44.95;100385.63;4958903;28;98009;-64
2021/12/25 13:40:09;;;;;;;;;;;;;;;11.78;45.26;100387.28;4959218;28;117796;-63
2021/12/25 13:42:35;;;;;;;;;;;;;;;11.75;45.13;100398.66;4957056;28;98446;-64
2021/12/25 13:45:01;;;;;;;;;;;;;;;11.71;44.95;100399.47;4957299;28;127334;-57
2021/12/25 13:47:28;;;;;;;;;;;;;;;11.66;45.12;100405.69;4960525;28;98662;-64
2021/12/25 13:50:03;;;;;;;;;;;;;;;11.62;45.18;100407.31;4958859;28;103646;-64
2021/12/25 13:52:40;;;;;;;;;;;;;;;11.58;45.26;100408.97;4957652;28;98915;-56
2021/12/25 13:55:15;;;;;;;;;;;;;;;11.53;44.78;100399.00;4960341;28;98820;-64
2021/12/25 13:57:48;;;;;;;;;;;;;;;11.50;45.28;100399.53;4958874;28;98120;-64